sensor_id;sensor_type;location;lat;lon;timestamp;P1;durP1;ratioP1;P2;durP2;ratioP2
70169;SDS011;57543;45.442;9.212;2024-02-16T00:01:41;70.80;;;37.28;;
70169;SDS011;57543;45.442;9.212;2024-02-16T00:04:44;66.10;;;34.80;;
70169;SDS011;57543;45.442;9.212;2024-02-16T00:07:49;64.93;;;35.33;;
70169;SDS011;57543;45.442;9.212;2024-02-16T00:10:53;64.97;;;34.87;;
70169;SDS011;57543;45.442;9.212;2024-02-16T00:13:56;61.85;;;34.40;;
70169;SDS011;57543;45.442;9.212;2024-02-16T00:17:00;68.13;;;34.92;;
70169;SDS011;57543;45.442;9.212;2024-02-16T00:20:13;66.90;;;34.72;;
70169;SDS011;57543;45.442;9.212;2024-02-16T00:23:17;67.57;;;34.55;;
70169;SDS011;57543;45.442;9.212;2024-02-16T00:26:26;60.90;;;34.23;;
70169;SDS011;57543;45.442;9.212;2024-02-16T00:29:37;64.07;;;34.78;;
70169;SDS011;57543;45.442;9.212;2024-02-16T00:32:49;67.20;;;35.70;;
70169;SDS011;57543;45.442;9.212;2024-02-16T00:35:52;68.68;;;34.42;;
70169;SDS011;57543;45.442;9.212;2024-02-16T00:39:01;69.90;;;36.05;;
70169;SDS011;57543;45.442;9.212;2024-02-16T00:42:07;64.80;;;35.47;;
70169;SDS011;57543;45.442;9.212;2024-02-16T00:45:14;64.53;;;33.92;;
70169;SDS011;57543;45.442;9.212;2024-02-16T00:48:18;66.78;;;34.22;;
70169;SDS011;57543;45.442;9.212;2024-02-16T00:51:29;65.07;;;33.63;;
70169;SDS011;57543;45.442;9.212;2024-02-16T00:54:33;62.22;;;33.03;;
70169;SDS011;57543;45.442;9.212;2024-02-16T00:57:36;63.40;;;34.83;;
70169;SDS011;57543;45.442;9.212;2024-02-16T01:00:41;64.82;;;34.38;;
70169;SDS011;57543;45.442;9.212;2024-02-16T01:03:46;60.33;;;32.72;;
70169;SDS011;57543;45.442;9.212;2024-02-16T01:06:55;65.40;;;33.72;;
70169;SDS011;57543;45.442;9.212;2024-02-16T01:09:58;66.85;;;32.90;;
70169;SDS011;57543;45.442;9.212;2024-02-16T01:13:03;65.00;;;35.20;;
70169;SDS011;57543;45.442;9.212;2024-02-16T01:16:07;66.25;;;34.97;;
70169;SDS011;57543;45.442;9.212;2024-02-16T01:19:18;67.68;;;35.88;;
70169;SDS011;57543;45.442;9.212;2024-02-16T01:22:22;67.00;;;34.22;;
70169;SDS011;57543;45.442;9.212;2024-02-16T01:25:28;67.70;;;35.78;;
70169;SDS011;57543;45.442;9.212;2024-02-16T01:28:34;63.40;;;34.23;;
70169;SDS011;57543;45.442;9.212;2024-02-16T01:31:40;69.10;;;35.20;;
70169;SDS011;57543;45.442;9.212;2024-02-16T01:34:51;63.58;;;34.65;;
70169;SDS011;57543;45.442;9.212;2024-02-16T01:37:56;68.85;;;34.75;;
70169;SDS011;57543;45.442;9.212;2024-02-16T01:40:59;70.82;;;36.70;;
70169;SDS011;57543;45.442;9.212;2024-02-16T01:44:34;65.47;;;36.23;;
70169;SDS011;57543;45.442;9.212;2024-02-16T01:47:40;70.18;;;35.67;;
70169;SDS011;57543;45.442;9.212;2024-02-16T01:50:49;65.82;;;35.50;;
70169;SDS011;57543;45.442;9.212;2024-02-16T01:53:54;73.57;;;36.42;;
70169;SDS011;57543;45.442;9.212;2024-02-16T01:56:59;68.07;;;35.80;;
70169;SDS011;57543;45.442;9.212;2024-02-16T02:00:04;68.27;;;35.70;;
70169;SDS011;57543;45.442;9.212;2024-02-16T02:03:11;70.45;;;36.97;;
70169;SDS011;57543;45.442;9.212;2024-02-16T02:06:16;69.25;;;36.72;;
70169;SDS011;57543;45.442;9.212;2024-02-16T02:09:20;67.30;;;35.08;;
70169;SDS011;57543;45.442;9.212;2024-02-16T02:12:26;67.65;;;35.80;;
70169;SDS011;57543;45.442;9.212;2024-02-16T02:15:30;72.20;;;35.80;;
70169;SDS011;57543;45.442;9.212;2024-02-16T02:18:36;69.22;;;35.80;;
70169;SDS011;57543;45.442;9.212;2024-02-16T02:21:39;65.90;;;35.85;;
70169;SDS011;57543;45.442;9.212;2024-02-16T02:24:46;69.35;;;36.47;;
70169;SDS011;57543;45.442;9.212;2024-02-16T02:27:53;71.60;;;35.83;;
70169;SDS011;57543;45.442;9.212;2024-02-16T02:30:57;66.67;;;34.90;;
70169;SDS011;57543;45.442;9.212;2024-02-16T02:34:01;70.50;;;35.45;;
70169;SDS011;57543;45.442;9.212;2024-02-16T02:37:05;70.20;;;34.80;;
70169;SDS011;57543;45.442;9.212;2024-02-16T02:40:09;69.63;;;35.10;;
70169;SDS011;57543;45.442;9.212;2024-02-16T02:43:14;64.72;;;35.17;;
70169;SDS011;57543;45.442;9.212;2024-02-16T02:46:18;64.10;;;34.50;;
70169;SDS011;57543;45.442;9.212;2024-02-16T02:49:30;64.20;;;33.67;;
70169;SDS011;57543;45.442;9.212;2024-02-16T02:52:39;61.00;;;34.58;;
70169;SDS011;57543;45.442;9.212;2024-02-16T02:55:53;65.25;;;35.28;;
70169;SDS011;57543;45.442;9.212;2024-02-16T02:58:56;70.43;;;36.70;;
70169;SDS011;57543;45.442;9.212;2024-02-16T03:02:02;66.73;;;35.53;;
70169;SDS011;57543;45.442;9.212;2024-02-16T03:05:08;64.63;;;34.13;;
70169;SDS011;57543;45.442;9.212;2024-02-16T03:08:12;67.03;;;35.35;;
70169;SDS011;57543;45.442;9.212;2024-02-16T03:11:20;66.68;;;34.30;;
70169;SDS011;57543;45.442;9.212;2024-02-16T03:14:28;72.00;;;36.63;;
70169;SDS011;57543;45.442;9.212;2024-02-16T03:17:39;64.97;;;35.27;;
70169;SDS011;57543;45.442;9.212;2024-02-16T03:20:43;66.25;;;36.03;;
70169;SDS011;57543;45.442;9.212;2024-02-16T03:23:49;67.50;;;35.50;;
70169;SDS011;57543;45.442;9.212;2024-02-16T03:26:53;62.60;;;35.05;;
70169;SDS011;57543;45.442;9.212;2024-02-16T03:29:59;67.10;;;36.03;;
70169;SDS011;57543;45.442;9.212;2024-02-16T03:33:06;67.50;;;35.73;;
70169;SDS011;57543;45.442;9.212;2024-02-16T03:36:10;68.43;;;36.35;;
70169;SDS011;57543;45.442;9.212;2024-02-16T03:39:16;72.20;;;37.65;;
70169;SDS011;57543;45.442;9.212;2024-02-16T03:42:23;62.55;;;33.88;;
70169;SDS011;57543;45.442;9.212;2024-02-16T03:45:26;72.60;;;36.75;;
70169;SDS011;57543;45.442;9.212;2024-02-16T03:48:33;67.67;;;36.67;;
70169;SDS011;57543;45.442;9.212;2024-02-16T03:51:39;68.40;;;35.67;;
70169;SDS011;57543;45.442;9.212;2024-02-16T03:54:42;62.67;;;34.97;;
70169;SDS011;57543;45.442;9.212;2024-02-16T03:57:46;67.78;;;35.90;;
70169;SDS011;57543;45.442;9.212;2024-02-16T04:00:50;67.90;;;37.40;;
70169;SDS011;57543;45.442;9.212;2024-02-16T04:03:56;64.53;;;34.93;;
70169;SDS011;57543;45.442;9.212;2024-02-16T04:07:00;65.35;;;35.45;;
70169;SDS011;57543;45.442;9.212;2024-02-16T04:10:04;66.20;;;34.30;;
70169;SDS011;57543;45.442;9.212;2024-02-16T04:13:10;66.25;;;34.58;;
70169;SDS011;57543;45.442;9.212;2024-02-16T04:16:15;67.55;;;34.95;;
70169;SDS011;57543;45.442;9.212;2024-02-16T04:19:19;68.83;;;36.97;;
70169;SDS011;57543;45.442;9.212;2024-02-16T04:22:41;68.95;;;36.97;;
70169;SDS011;57543;45.442;9.212;2024-02-16T04:25:45;74.50;;;38.17;;
70169;SDS011;57543;45.442;9.212;2024-02-16T04:28:48;73.07;;;38.40;;
70169;SDS011;57543;45.442;9.212;2024-02-16T04:31:52;83.97;;;40.78;;
70169;SDS011;57543;45.442;9.212;2024-02-16T04:35:06;72.47;;;37.87;;
70169;SDS011;57543;45.442;9.212;2024-02-16T04:38:17;67.80;;;37.03;;
70169;SDS011;57543;45.442;9.212;2024-02-16T04:41:24;65.38;;;35.75;;
70169;SDS011;57543;45.442;9.212;2024-02-16T04:44:31;72.40;;;37.78;;
70169;SDS011;57543;45.442;9.212;2024-02-16T04:47:35;68.95;;;37.47;;
70169;SDS011;57543;45.442;9.212;2024-02-16T04:50:38;67.10;;;36.70;;
70169;SDS011;57543;45.442;9.212;2024-02-16T04:53:43;77.75;;;38.40;;
70169;SDS011;57543;45.442;9.212;2024-02-16T04:56:50;73.15;;;39.28;;
70169;SDS011;57543;45.442;9.212;2024-02-16T04:59:54;68.97;;;38.17;;
70169;SDS011;57543;45.442;9.212;2024-02-16T05:02:57;71.65;;;39.38;;
70169;SDS011;57543;45.442;9.212;2024-02-16T05:06:01;76.17;;;40.03;;
70169;SDS011;57543;45.442;9.212;2024-02-16T05:09:07;68.82;;;38.28;;
70169;SDS011;57543;45.442;9.212;2024-02-16T05:12:11;79.00;;;41.03;;
70169;SDS011;57543;45.442;9.212;2024-02-16T05:15:15;76.20;;;40.03;;
70169;SDS011;57543;45.442;9.212;2024-02-16T05:18:23;77.63;;;40.75;;
70169;SDS011;57543;45.442;9.212;2024-02-16T05:21:28;75.17;;;40.17;;
70169;SDS011;57543;45.442;9.212;2024-02-16T05:24:32;70.70;;;39.03;;
70169;SDS011;57543;45.442;9.212;2024-02-16T05:27:36;74.65;;;37.38;;
70169;SDS011;57543;45.442;9.212;2024-02-16T05:30:40;71.60;;;38.90;;
70169;SDS011;57543;45.442;9.212;2024-02-16T05:33:46;68.32;;;36.53;;
70169;SDS011;57543;45.442;9.212;2024-02-16T05:36:53;71.70;;;38.20;;
70169;SDS011;57543;45.442;9.212;2024-02-16T05:39:56;79.22;;;39.47;;
70169;SDS011;57543;45.442;9.212;2024-02-16T05:43:14;69.32;;;37.25;;
70169;SDS011;57543;45.442;9.212;2024-02-16T05:46:24;73.20;;;38.95;;
70169;SDS011;57543;45.442;9.212;2024-02-16T05:49:31;66.32;;;37.88;;
70169;SDS011;57543;45.442;9.212;2024-02-16T05:52:34;71.70;;;37.73;;
70169;SDS011;57543;45.442;9.212;2024-02-16T05:55:44;68.78;;;38.50;;
70169;SDS011;57543;45.442;9.212;2024-02-16T05:58:53;69.68;;;36.63;;
70169;SDS011;57543;45.442;9.212;2024-02-16T06:01:57;66.22;;;37.63;;
70169;SDS011;57543;45.442;9.212;2024-02-16T06:05:04;67.80;;;37.63;;
70169;SDS011;57543;45.442;9.212;2024-02-16T06:08:09;69.47;;;37.67;;
70169;SDS011;57543;45.442;9.212;2024-02-16T06:11:14;68.95;;;37.80;;
70169;SDS011;57543;45.442;9.212;2024-02-16T06:14:20;73.80;;;37.78;;
70169;SDS011;57543;45.442;9.212;2024-02-16T06:17:26;68.55;;;37.60;;
70169;SDS011;57543;45.442;9.212;2024-02-16T06:20:30;71.57;;;39.50;;
70169;SDS011;57543;45.442;9.212;2024-02-16T06:23:33;73.87;;;37.87;;
70169;SDS011;57543;45.442;9.212;2024-02-16T06:26:39;70.63;;;39.03;;
70169;SDS011;57543;45.442;9.212;2024-02-16T06:29:42;69.72;;;38.83;;
70169;SDS011;57543;45.442;9.212;2024-02-16T06:32:46;68.43;;;37.50;;
70169;SDS011;57543;45.442;9.212;2024-02-16T06:35:50;69.82;;;38.38;;
70169;SDS011;57543;45.442;9.212;2024-02-16T06:38:54;73.30;;;38.37;;
70169;SDS011;57543;45.442;9.212;2024-02-16T06:41:59;67.93;;;36.72;;
70169;SDS011;57543;45.442;9.212;2024-02-16T06:45:03;73.45;;;39.47;;
70169;SDS011;57543;45.442;9.212;2024-02-16T06:48:08;70.80;;;37.55;;
70169;SDS011;57543;45.442;9.212;2024-02-16T06:51:15;72.45;;;37.28;;
70169;SDS011;57543;45.442;9.212;2024-02-16T06:54:21;69.73;;;38.23;;
70169;SDS011;57543;45.442;9.212;2024-02-16T06:57:24;71.03;;;37.58;;
70169;SDS011;57543;45.442;9.212;2024-02-16T07:00:33;68.88;;;37.67;;
70169;SDS011;57543;45.442;9.212;2024-02-16T07:03:43;71.18;;;37.90;;
70169;SDS011;57543;45.442;9.212;2024-02-16T07:06:52;69.25;;;37.28;;
70169;SDS011;57543;45.442;9.212;2024-02-16T07:10:00;77.43;;;39.33;;
70169;SDS011;57543;45.442;9.212;2024-02-16T07:13:08;70.00;;;39.00;;
70169;SDS011;57543;45.442;9.212;2024-02-16T07:16:12;73.97;;;38.58;;
70169;SDS011;57543;45.442;9.212;2024-02-16T07:19:15;75.95;;;40.45;;
70169;SDS011;57543;45.442;9.212;2024-02-16T07:22:25;72.22;;;38.55;;
70169;SDS011;57543;45.442;9.212;2024-02-16T07:25:28;72.00;;;40.20;;
70169;SDS011;57543;45.442;9.212;2024-02-16T07:28:36;76.00;;;40.50;;
70169;SDS011;57543;45.442;9.212;2024-02-16T07:31:40;82.20;;;41.17;;
70169;SDS011;57543;45.442;9.212;2024-02-16T07:34:49;78.93;;;39.08;;
70169;SDS011;57543;45.442;9.212;2024-02-16T07:37:53;75.68;;;41.25;;
70169;SDS011;57543;45.442;9.212;2024-02-16T07:40:57;73.57;;;38.37;;
70169;SDS011;57543;45.442;9.212;2024-02-16T07:44:03;73.00;;;40.05;;
70169;SDS011;57543;45.442;9.212;2024-02-16T07:47:07;66.63;;;38.70;;
70169;SDS011;57543;45.442;9.212;2024-02-16T07:50:21;69.50;;;39.45;;
70169;SDS011;57543;45.442;9.212;2024-02-16T07:53:31;76.07;;;40.25;;
70169;SDS011;57543;45.442;9.212;2024-02-16T07:56:35;73.80;;;41.73;;
70169;SDS011;57543;45.442;9.212;2024-02-16T07:59:39;67.88;;;38.85;;
70169;SDS011;57543;45.442;9.212;2024-02-16T08:02:45;72.97;;;39.97;;
70169;SDS011;57543;45.442;9.212;2024-02-16T08:05:51;69.78;;;39.83;;
70169;SDS011;57543;45.442;9.212;2024-02-16T08:09:01;70.20;;;40.00;;
70169;SDS011;57543;45.442;9.212;2024-02-16T08:12:11;69.43;;;39.20;;
70169;SDS011;57543;45.442;9.212;2024-02-16T08:15:15;73.60;;;40.65;;
70169;SDS011;57543;45.442;9.212;2024-02-16T08:18:29;71.20;;;38.40;;
70169;SDS011;57543;45.442;9.212;2024-02-16T08:21:38;79.03;;;40.67;;
70169;SDS011;57543;45.442;9.212;2024-02-16T08:24:46;77.95;;;42.78;;
70169;SDS011;57543;45.442;9.212;2024-02-16T08:27:49;74.90;;;41.03;;
70169;SDS011;57543;45.442;9.212;2024-02-16T08:30:55;73.07;;;42.22;;
70169;SDS011;57543;45.442;9.212;2024-02-16T08:34:05;67.38;;;39.13;;
70169;SDS011;57543;45.442;9.212;2024-02-16T08:37:10;73.30;;;41.20;;
70169;SDS011;57543;45.442;9.212;2024-02-16T08:40:15;71.72;;;41.30;;
70169;SDS011;57543;45.442;9.212;2024-02-16T08:43:21;77.90;;;40.97;;
70169;SDS011;57543;45.442;9.212;2024-02-16T08:46:30;77.63;;;43.15;;
70169;SDS011;57543;45.442;9.212;2024-02-16T08:49:35;76.63;;;42.20;;
70169;SDS011;57543;45.442;9.212;2024-02-16T08:52:41;74.47;;;42.47;;
70169;SDS011;57543;45.442;9.212;2024-02-16T08:55:45;71.95;;;37.50;;
70169;SDS011;57543;45.442;9.212;2024-02-16T08:58:54;72.83;;;40.73;;
70169;SDS011;57543;45.442;9.212;2024-02-16T09:01:58;70.75;;;39.42;;
70169;SDS011;57543;45.442;9.212;2024-02-16T09:05:04;72.32;;;41.05;;
70169;SDS011;57543;45.442;9.212;2024-02-16T09:08:09;69.93;;;40.05;;
70169;SDS011;57543;45.442;9.212;2024-02-16T09:11:13;68.40;;;38.78;;
70169;SDS011;57543;45.442;9.212;2024-02-16T09:14:18;67.00;;;40.80;;
70169;SDS011;57543;45.442;9.212;2024-02-16T09:17:22;70.15;;;40.58;;
70169;SDS011;57543;45.442;9.212;2024-02-16T09:20:26;67.63;;;41.78;;
70169;SDS011;57543;45.442;9.212;2024-02-16T09:23:32;73.82;;;43.45;;
70169;SDS011;57543;45.442;9.212;2024-02-16T09:26:37;70.28;;;42.28;;
70169;SDS011;57543;45.442;9.212;2024-02-16T09:29:44;74.50;;;44.43;;
70169;SDS011;57543;45.442;9.212;2024-02-16T09:32:50;68.10;;;42.50;;
70169;SDS011;57543;45.442;9.212;2024-02-16T09:35:59;75.18;;;44.80;;
70169;SDS011;57543;45.442;9.212;2024-02-16T09:39:10;73.13;;;44.22;;
70169;SDS011;57543;45.442;9.212;2024-02-16T09:42:14;76.60;;;42.78;;
70169;SDS011;57543;45.442;9.212;2024-02-16T09:45:20;76.77;;;45.00;;
70169;SDS011;57543;45.442;9.212;2024-02-16T09:48:28;77.07;;;45.17;;
70169;SDS011;57543;45.442;9.212;2024-02-16T09:51:36;77.88;;;44.60;;
70169;SDS011;57543;45.442;9.212;2024-02-16T09:54:48;74.68;;;46.83;;
70169;SDS011;57543;45.442;9.212;2024-02-16T09:58:00;74.50;;;45.95;;
70169;SDS011;57543;45.442;9.212;2024-02-16T10:01:16;77.57;;;45.80;;
70169;SDS011;57543;45.442;9.212;2024-02-16T10:04:24;76.40;;;44.10;;
70169;SDS011;57543;45.442;9.212;2024-02-16T10:07:31;75.65;;;45.72;;
70169;SDS011;57543;45.442;9.212;2024-02-16T10:10:38;80.93;;;48.22;;
70169;SDS011;57543;45.442;9.212;2024-02-16T10:13:57;76.45;;;46.88;;
70169;SDS011;57543;45.442;9.212;2024-02-16T10:17:08;77.10;;;46.40;;
70169;SDS011;57543;45.442;9.212;2024-02-16T10:20:17;86.30;;;48.88;;
70169;SDS011;57543;45.442;9.212;2024-02-16T10:23:21;83.65;;;48.35;;
70169;SDS011;57543;45.442;9.212;2024-02-16T10:26:30;85.47;;;49.15;;
70169;SDS011;57543;45.442;9.212;2024-02-16T10:29:37;82.25;;;47.63;;
70169;SDS011;57543;45.442;9.212;2024-02-16T10:32:48;79.53;;;48.37;;
70169;SDS011;57543;45.442;9.212;2024-02-16T10:35:55;79.53;;;47.55;;
70169;SDS011;57543;45.442;9.212;2024-02-16T10:39:01;76.03;;;46.00;;
70169;SDS011;57543;45.442;9.212;2024-02-16T10:42:08;85.15;;;49.10;;
70169;SDS011;57543;45.442;9.212;2024-02-16T10:45:13;81.95;;;49.58;;
70169;SDS011;57543;45.442;9.212;2024-02-16T10:48:17;82.00;;;47.63;;
70169;SDS011;57543;45.442;9.212;2024-02-16T10:51:24;84.72;;;50.30;;
70169;SDS011;57543;45.442;9.212;2024-02-16T10:54:37;75.43;;;48.28;;
70169;SDS011;57543;45.442;9.212;2024-02-16T10:57:47;79.82;;;48.20;;
70169;SDS011;57543;45.442;9.212;2024-02-16T11:00:54;83.32;;;49.33;;
70169;SDS011;57543;45.442;9.212;2024-02-16T11:04:03;81.27;;;48.03;;
70169;SDS011;57543;45.442;9.212;2024-02-16T11:07:19;87.60;;;51.08;;
70169;SDS011;57543;45.442;9.212;2024-02-16T11:10:35;84.72;;;50.95;;
70169;SDS011;57543;45.442;9.212;2024-02-16T11:13:43;83.93;;;49.33;;
70169;SDS011;57543;45.442;9.212;2024-02-16T11:16:48;77.78;;;46.60;;
70169;SDS011;57543;45.442;9.212;2024-02-16T11:19:59;88.27;;;51.50;;
70169;SDS011;57543;45.442;9.212;2024-02-16T11:23:09;86.47;;;50.90;;
70169;SDS011;57543;45.442;9.212;2024-02-16T11:26:16;82.93;;;48.72;;
70169;SDS011;57543;45.442;9.212;2024-02-16T11:29:20;87.15;;;50.63;;
70169;SDS011;57543;45.442;9.212;2024-02-16T11:32:43;77.30;;;48.08;;
70169;SDS011;57543;45.442;9.212;2024-02-16T11:35:52;81.30;;;47.30;;
70169;SDS011;57543;45.442;9.212;2024-02-16T11:38:59;77.47;;;47.33;;
70169;SDS011;57543;45.442;9.212;2024-02-16T11:42:07;76.00;;;47.22;;
70169;SDS011;57543;45.442;9.212;2024-02-16T11:45:14;80.40;;;48.20;;
70169;SDS011;57543;45.442;9.212;2024-02-16T11:48:19;78.55;;;49.08;;
70169;SDS011;57543;45.442;9.212;2024-02-16T11:51:30;78.00;;;47.80;;
70169;SDS011;57543;45.442;9.212;2024-02-16T11:54:36;78.13;;;49.15;;
70169;SDS011;57543;45.442;9.212;2024-02-16T11:57:43;76.80;;;48.72;;
70169;SDS011;57543;45.442;9.212;2024-02-16T12:00:51;84.50;;;50.97;;
70169;SDS011;57543;45.442;9.212;2024-02-16T12:03:55;80.85;;;48.10;;
70169;SDS011;57543;45.442;9.212;2024-02-16T12:06:59;78.50;;;48.47;;
70169;SDS011;57543;45.442;9.212;2024-02-16T12:10:07;76.47;;;50.15;;
70169;SDS011;57543;45.442;9.212;2024-02-16T12:13:10;76.55;;;49.58;;
70169;SDS011;57543;45.442;9.212;2024-02-16T12:16:14;82.75;;;49.17;;
70169;SDS011;57543;45.442;9.212;2024-02-16T12:19:18;81.25;;;46.70;;
70169;SDS011;57543;45.442;9.212;2024-02-16T12:22:21;81.90;;;48.27;;
70169;SDS011;57543;45.442;9.212;2024-02-16T12:25:28;82.47;;;51.17;;
70169;SDS011;57543;45.442;9.212;2024-02-16T12:28:40;82.75;;;50.40;;
70169;SDS011;57543;45.442;9.212;2024-02-16T12:31:45;78.05;;;49.05;;
70169;SDS011;57543;45.442;9.212;2024-02-16T12:34:51;84.43;;;49.85;;
70169;SDS011;57543;45.442;9.212;2024-02-16T12:37:58;80.47;;;49.03;;
70169;SDS011;57543;45.442;9.212;2024-02-16T12:41:01;81.97;;;48.80;;
70169;SDS011;57543;45.442;9.212;2024-02-16T12:44:06;83.28;;;50.20;;
70169;SDS011;57543;45.442;9.212;2024-02-16T12:47:10;79.55;;;47.63;;
70169;SDS011;57543;45.442;9.212;2024-02-16T12:50:14;84.93;;;50.25;;
70169;SDS011;57543;45.442;9.212;2024-02-16T12:53:28;83.27;;;50.90;;
70169;SDS011;57543;45.442;9.212;2024-02-16T12:56:47;84.20;;;49.45;;
70169;SDS011;57543;45.442;9.212;2024-02-16T12:59:51;84.13;;;48.95;;
70169;SDS011;57543;45.442;9.212;2024-02-16T13:03:01;82.15;;;49.03;;
70169;SDS011;57543;45.442;9.212;2024-02-16T13:06:04;92.32;;;52.58;;
70169;SDS011;57543;45.442;9.212;2024-02-16T13:09:08;82.00;;;48.30;;
70169;SDS011;57543;45.442;9.212;2024-02-16T13:12:12;81.07;;;48.35;;
70169;SDS011;57543;45.442;9.212;2024-02-16T13:15:18;83.80;;;49.17;;
70169;SDS011;57543;45.442;9.212;2024-02-16T13:18:22;87.22;;;48.53;;
70169;SDS011;57543;45.442;9.212;2024-02-16T13:21:26;83.57;;;49.55;;
70169;SDS011;57543;45.442;9.212;2024-02-16T13:24:30;89.23;;;49.43;;
70169;SDS011;57543;45.442;9.212;2024-02-16T13:27:39;80.53;;;47.92;;
70169;SDS011;57543;45.442;9.212;2024-02-16T13:30:44;84.95;;;49.67;;
70169;SDS011;57543;45.442;9.212;2024-02-16T13:33:47;82.10;;;48.30;;
70169;SDS011;57543;45.442;9.212;2024-02-16T13:36:54;84.00;;;47.83;;
70169;SDS011;57543;45.442;9.212;2024-02-16T13:40:00;91.13;;;48.30;;
70169;SDS011;57543;45.442;9.212;2024-02-16T13:43:07;86.85;;;49.50;;
70169;SDS011;57543;45.442;9.212;2024-02-16T13:46:13;87.43;;;49.47;;
70169;SDS011;57543;45.442;9.212;2024-02-16T13:49:17;89.50;;;50.50;;
70169;SDS011;57543;45.442;9.212;2024-02-16T13:52:21;84.13;;;49.40;;
70169;SDS011;57543;45.442;9.212;2024-02-16T13:55:25;85.30;;;49.13;;
70169;SDS011;57543;45.442;9.212;2024-02-16T13:58:30;81.60;;;47.53;;
70169;SDS011;57543;45.442;9.212;2024-02-16T14:01:34;84.78;;;48.40;;
70169;SDS011;57543;45.442;9.212;2024-02-16T14:04:39;89.10;;;50.55;;
70169;SDS011;57543;45.442;9.212;2024-02-16T14:07:52;90.18;;;49.33;;
70169;SDS011;57543;45.442;9.212;2024-02-16T14:11:02;81.07;;;47.93;;
70169;SDS011;57543;45.442;9.212;2024-02-16T14:14:07;94.35;;;51.58;;
70169;SDS011;57543;45.442;9.212;2024-02-16T14:17:11;92.18;;;50.30;;
70169;SDS011;57543;45.442;9.212;2024-02-16T14:20:34;87.90;;;51.55;;
70169;SDS011;57543;45.442;9.212;2024-02-16T14:23:37;86.07;;;49.05;;
70169;SDS011;57543;45.442;9.212;2024-02-16T14:26:43;90.17;;;49.33;;
70169;SDS011;57543;45.442;9.212;2024-02-16T14:29:47;89.82;;;50.25;;
70169;SDS011;57543;45.442;9.212;2024-02-16T14:32:53;96.18;;;50.78;;
70169;SDS011;57543;45.442;9.212;2024-02-16T14:35:59;96.50;;;53.40;;
70169;SDS011;57543;45.442;9.212;2024-02-16T14:39:06;74.28;;;40.63;;
70169;SDS011;57543;45.442;9.212;2024-02-16T14:42:12;90.13;;;50.20;;
70169;SDS011;57543;45.442;9.212;2024-02-16T14:45:17;99.82;;;54.55;;
70169;SDS011;57543;45.442;9.212;2024-02-16T14:48:24;90.70;;;49.83;;
70169;SDS011;57543;45.442;9.212;2024-02-16T14:51:31;96.75;;;50.97;;
70169;SDS011;57543;45.442;9.212;2024-02-16T14:54:38;90.90;;;50.60;;
70169;SDS011;57543;45.442;9.212;2024-02-16T14:57:45;93.53;;;50.30;;
70169;SDS011;57543;45.442;9.212;2024-02-16T15:00:51;98.88;;;53.80;;
70169;SDS011;57543;45.442;9.212;2024-02-16T15:03:57;87.97;;;49.33;;
70169;SDS011;57543;45.442;9.212;2024-02-16T15:07:01;94.32;;;50.70;;
70169;SDS011;57543;45.442;9.212;2024-02-16T15:10:04;94.75;;;50.95;;
70169;SDS011;57543;45.442;9.212;2024-02-16T15:13:08;89.77;;;49.80;;
70169;SDS011;57543;45.442;9.212;2024-02-16T15:16:13;89.10;;;48.35;;
70169;SDS011;57543;45.442;9.212;2024-02-16T15:19:19;90.22;;;49.30;;
70169;SDS011;57543;45.442;9.212;2024-02-16T15:22:25;89.30;;;49.05;;
70169;SDS011;57543;45.442;9.212;2024-02-16T15:25:35;92.13;;;50.15;;
70169;SDS011;57543;45.442;9.212;2024-02-16T15:28:45;87.10;;;48.90;;
70169;SDS011;57543;45.442;9.212;2024-02-16T15:31:49;88.75;;;48.50;;
70169;SDS011;57543;45.442;9.212;2024-02-16T15:34:53;87.00;;;47.67;;
70169;SDS011;57543;45.442;9.212;2024-02-16T15:37:59;82.38;;;46.53;;
70169;SDS011;57543;45.442;9.212;2024-02-16T15:41:04;101.53;;;52.67;;
70169;SDS011;57543;45.442;9.212;2024-02-16T15:44:12;84.50;;;47.83;;
70169;SDS011;57543;45.442;9.212;2024-02-16T15:47:18;85.32;;;49.17;;
70169;SDS011;57543;45.442;9.212;2024-02-16T15:50:21;88.05;;;47.95;;
70169;SDS011;57543;45.442;9.212;2024-02-16T15:53:26;85.93;;;48.33;;
70169;SDS011;57543;45.442;9.212;2024-02-16T15:56:30;87.78;;;47.30;;
70169;SDS011;57543;45.442;9.212;2024-02-16T15:59:34;96.30;;;49.03;;
70169;SDS011;57543;45.442;9.212;2024-02-16T16:02:38;93.50;;;48.78;;
70169;SDS011;57543;45.442;9.212;2024-02-16T16:05:43;87.63;;;47.22;;
70169;SDS011;57543;45.442;9.212;2024-02-16T16:08:48;87.00;;;47.33;;
70169;SDS011;57543;45.442;9.212;2024-02-16T16:11:55;92.00;;;50.20;;
70169;SDS011;57543;45.442;9.212;2024-02-16T16:15:01;84.97;;;46.17;;
70169;SDS011;57543;45.442;9.212;2024-02-16T16:18:04;87.82;;;46.78;;
70169;SDS011;57543;45.442;9.212;2024-02-16T16:21:14;93.97;;;49.97;;
70169;SDS011;57543;45.442;9.212;2024-02-16T16:24:21;87.93;;;49.67;;
70169;SDS011;57543;45.442;9.212;2024-02-16T16:27:28;89.82;;;47.30;;
70169;SDS011;57543;45.442;9.212;2024-02-16T16:30:31;89.07;;;47.43;;
70169;SDS011;57543;45.442;9.212;2024-02-16T16:33:35;86.50;;;47.08;;
70169;SDS011;57543;45.442;9.212;2024-02-16T16:36:39;97.75;;;52.05;;
70169;SDS011;57543;45.442;9.212;2024-02-16T16:39:43;88.63;;;46.42;;
70169;SDS011;57543;45.442;9.212;2024-02-16T16:42:59;94.47;;;50.95;;
70169;SDS011;57543;45.442;9.212;2024-02-16T16:46:06;88.03;;;46.80;;
70169;SDS011;57543;45.442;9.212;2024-02-16T16:49:11;93.60;;;49.90;;
70169;SDS011;57543;45.442;9.212;2024-02-16T16:52:17;90.60;;;48.85;;
70169;SDS011;57543;45.442;9.212;2024-02-16T16:55:23;92.00;;;49.40;;
70169;SDS011;57543;45.442;9.212;2024-02-16T16:58:27;96.03;;;49.03;;
70169;SDS011;57543;45.442;9.212;2024-02-16T17:01:31;92.50;;;48.73;;
70169;SDS011;57543;45.442;9.212;2024-02-16T17:04:38;93.22;;;50.42;;
70169;SDS011;57543;45.442;9.212;2024-02-16T17:07:47;91.50;;;49.42;;
70169;SDS011;57543;45.442;9.212;2024-02-16T17:10:52;91.38;;;49.50;;
70169;SDS011;57543;45.442;9.212;2024-02-16T17:13:56;90.90;;;49.50;;
70169;SDS011;57543;45.442;9.212;2024-02-16T17:17:04;95.33;;;51.17;;
70169;SDS011;57543;45.442;9.212;2024-02-16T17:20:08;94.47;;;48.58;;
70169;SDS011;57543;45.442;9.212;2024-02-16T17:23:13;96.38;;;49.10;;
70169;SDS011;57543;45.442;9.212;2024-02-16T17:26:16;92.15;;;49.53;;
70169;SDS011;57543;45.442;9.212;2024-02-16T17:29:20;92.25;;;48.63;;
70169;SDS011;57543;45.442;9.212;2024-02-16T17:32:25;96.77;;;50.63;;
70169;SDS011;57543;45.442;9.212;2024-02-16T17:35:29;98.53;;;50.03;;
70169;SDS011;57543;45.442;9.212;2024-02-16T17:38:36;89.90;;;48.17;;
70169;SDS011;57543;45.442;9.212;2024-02-16T17:41:43;98.40;;;50.97;;
70169;SDS011;57543;45.442;9.212;2024-02-16T17:44:49;97.63;;;50.65;;
70169;SDS011;57543;45.442;9.212;2024-02-16T17:47:52;93.67;;;51.27;;
70169;SDS011;57543;45.442;9.212;2024-02-16T17:50:59;96.57;;;48.75;;
70169;SDS011;57543;45.442;9.212;2024-02-16T17:54:03;99.07;;;51.55;;
70169;SDS011;57543;45.442;9.212;2024-02-16T17:57:09;96.47;;;48.75;;
70169;SDS011;57543;45.442;9.212;2024-02-16T18:00:22;93.25;;;49.35;;
70169;SDS011;57543;45.442;9.212;2024-02-16T18:03:29;97.37;;;50.77;;
70169;SDS011;57543;45.442;9.212;2024-02-16T18:06:35;99.55;;;51.45;;
70169;SDS011;57543;45.442;9.212;2024-02-16T18:09:48;99.35;;;51.53;;